Time;durP1;ratioP1;P1;durP2;ratioP2;P2;SDS_P1;SDS_P2;PMS_P1;PMS_P2;Temp;Humidity;BMP_temperature;BMP_pressure;BME280_temperature;BME280_humidity;BME280_pressure;Samples;Min_cycle;Max_cycle;Signal;HPM_P1;HPM_P2
2022/05/15 00:01:30;;;;;;;;;;;;;;;19.26;43.12;100127.31;4383220;32;19990;-81
2022/05/15 00:03:59;;;;;;;;;;;;;;;19.28;43.46;100129.03;4377559;32;20553;-81
2022/05/15 00:06:26;;;;;;;;;;;;;;;19.19;43.44;100125.66;4393475;32;19971;-81
2022/05/15 00:08:53;;;;;;;;;;;;;;;19.32;43.31;100127.22;4383782;32;19987;-83
2022/05/15 00:11:20;;;;;;;;;;;;;;;19.41;43.46;100134.97;4383779;32;20351;-83
2022/05/15 00:13:47;;;;;;;;;;;;;;;19.21;44.05;100129.16;4383665;32;20001;-82
2022/05/15 00:16:14;;;;;;;;;;;;;;;19.22;44.02;100128.25;4384189;32;19989;-83
2022/05/15 00:18:43;;;;;;;;;;;;;;;18.97;45.08;100128.59;4382987;32;19974;-82
2022/05/15 00:21:10;;;;;;;;;;;;;;;19.16;43.98;100130.97;4383751;32;20081;-82
2022/05/15 00:23:37;;;;;;;;;;;;;;;19.05;43.95;100123.25;4384237;32;19987;-82
2022/05/15 00:26:04;;;;;;;;;;;;;;;19.09;43.70;100129.31;4382185;32;19967;-82
2022/05/15 00:28:31;;;;;;;;;;;;;;;19.16;43.52;100130.97;4383468;32;19979;-82
2022/05/15 00:30:58;;;;;;;;;;;;;;;19.17;42.96;100132.69;4383803;32;20037;-82
2022/05/15 00:33:25;;;;;;;;;;;;;;;19.02;44.19;100123.28;4385963;32;19988;-82
2022/05/15 00:35:53;;;;;;;;;;;;;;;18.87;44.33;100129.59;4385373;32;20345;-83
2022/05/15 00:38:20;;;;;;;;;;;;;;;18.72;45.03;100124.53;4383887;32;19982;-82
2022/05/15 00:40:47;;;;;;;;;;;;;;;18.73;45.19;100123.66;4385499;32;20035;-82
2022/05/15 00:43:32;;;;;;;;;;;;;;;18.80;45.26;100122.72;4384390;32;19990;-82
2022/05/15 00:46:00;;;;;;;;;;;;;;;18.63;45.53;100119.38;4385849;32;20327;-82
2022/05/15 00:48:27;;;;;;;;;;;;;;;18.43;45.88;100123.13;4385870;32;20029;-82
2022/05/15 00:50:55;;;;;;;;;;;;;;;18.64;45.10;100123.78;4385844;32;20070;-82
2022/05/15 00:53:22;;;;;;;;;;;;;;;18.63;44.96;100124.63;4384606;32;20323;-82
2022/05/15 00:55:50;;;;;;;;;;;;;;;18.37;46.06;100120.56;4371846;32;20127;-81
2022/05/15 00:58:29;;;;;;;;;;;;;;;18.40;46.15;100122.28;4385164;32;20004;-82
2022/05/15 01:00:56;;;;;;;;;;;;;;;18.23;46.45;100112.00;4384526;32;20037;-83
2022/05/15 01:03:23;;;;;;;;;;;;;;;18.40;45.59;100110.03;4385841;32;19990;-83
2022/05/15 01:05:54;;;;;;;;;;;;;;;18.42;45.56;100104.81;4385676;32;19987;-83
2022/05/15 01:08:22;;;;;;;;;;;;;;;18.55;45.17;100107.25;4385956;32;20069;-83
2022/05/15 01:10:50;;;;;;;;;;;;;;;18.49;45.75;100106.47;4384205;32;20367;-83
2022/05/15 01:13:17;;;;;;;;;;;;;;;18.26;46.67;100104.09;4385892;32;19983;-83
2022/05/15 01:15:44;;;;;;;;;;;;;;;18.03;47.06;100113.09;4384735;32;19978;-83
2022/05/15 01:18:12;;;;;;;;;;;;;;;18.12;46.67;100102.50;4384159;32;19979;-83
2022/05/15 01:20:40;;;;;;;;;;;;;;;18.22;46.63;100105.00;4385328;32;19993;-83
2022/05/15 01:23:07;;;;;;;;;;;;;;;18.13;46.73;100109.47;4384520;32;20027;-83
2022/05/15 01:25:35;;;;;;;;;;;;;;;18.23;46.48;100109.38;4386062;32;20038;-83
2022/05/15 01:28:11;;;;;;;;;;;;;;;18.11;46.73;100100.75;4385984;32;19983;-83
2022/05/15 01:30:39;;;;;;;;;;;;;;;18.27;46.47;100105.84;4385276;32;19986;-83
2022/05/15 01:33:06;;;;;;;;;;;;;;;18.00;47.57;100107.88;4384235;32;19990;-83
2022/05/15 01:35:35;;;;;;;;;;;;;;;17.90;47.60;100106.22;4384059;32;20391;-83
2022/05/15 01:38:05;;;;;;;;;;;;;;;18.00;47.33;100107.88;4385720;32;20117;-83
2022/05/15 01:40:33;;;;;;;;;;;;;;;18.05;47.05;100105.19;4368096;32;19987;-83
2022/05/15 01:43:00;;;;;;;;;;;;;;;18.05;47.31;100111.28;4353635;32;20727;-82
2022/05/15 01:45:27;;;;;;;;;;;;;;;17.86;47.53;100117.59;4367264;32;19975;-82
2022/05/15 01:47:56;;;;;;;;;;;;;;;18.07;47.17;100119.16;4364744;32;19986;-82
2022/05/15 01:50:23;;;;;;;;;;;;;;;18.01;47.16;100114.84;4371107;32;20021;-82
2022/05/15 01:52:50;;;;;;;;;;;;;;;17.79;47.94;100118.53;4369480;32;20031;-82
2022/05/15 01:55:17;;;;;;;;;;;;;;;17.92;47.50;100114.06;4370690;32;20127;-82
2022/05/15 01:57:44;;;;;;;;;;;;;;;17.85;47.61;100123.72;4370970;32;20002;-82
2022/05/15 02:00:13;;;;;;;;;;;;;;;17.67;48.07;100115.09;4369422;32;19982;-82
2022/05/15 02:02:41;;;;;;;;;;;;;;;17.76;48.12;100113.28;4370944;32;20332;-82
2022/05/15 02:05:10;;;;;;;;;;;;;;;17.86;47.74;100109.75;4370152;32;20025;-82
2022/05/15 02:07:37;;;;;;;;;;;;;;;17.70;48.06;100118.59;4370922;32;20030;-82
2022/05/15 02:10:05;;;;;;;;;;;;;;;17.75;48.07;100116.81;4370458;32;20469;-82
2022/05/15 02:12:32;;;;;;;;;;;;;;;17.83;47.68;100122.84;4368771;32;20008;-82
2022/05/15 02:15:01;;;;;;;;;;;;;;;17.74;48.30;100120.28;4360604;32;20025;-82
2022/05/15 02:17:29;;;;;;;;;;;;;;;17.74;48.42;100115.94;4359533;32;19987;-82
2022/05/15 02:19:56;;;;;;;;;;;;;;;17.83;48.26;100121.09;4370919;32;19989;-83
2022/05/15 02:22:23;;;;;;;;;;;;;;;17.81;48.04;100124.66;4370496;32;20033;-83
2022/05/15 02:24:50;;;;;;;;;;;;;;;17.62;48.67;100116.91;4370407;32;19999;-82
2022/05/15 02:27:17;;;;;;;;;;;;;;;17.49;48.94;100120.50;4369550;32;20277;-83
2022/05/15 02:29:45;;;;;;;;;;;;;;;17.52;48.93;100120.47;4369950;32;20289;-83
2022/05/15 02:32:11;;;;;;;;;;;;;;;17.71;47.89;100115.06;4370871;32;20050;-81
2022/05/15 02:34:38;;;;;;;;;;;;;;;17.56;48.16;100114.34;4370191;32;19991;-82
2022/05/15 02:37:05;;;;;;;;;;;;;;;17.75;48.59;100119.44;4370313;32;20033;-82
2022/05/15 02:39:32;;;;;;;;;;;;;;;17.41;49.03;100127.53;4370430;32;20028;-82
2022/05/15 02:42:01;;;;;;;;;;;;;;;17.44;48.79;100122.28;4369976;32;19995;-82
2022/05/15 02:44:29;;;;;;;;;;;;;;;17.46;49.33;100131.00;4370322;32;19982;-82
2022/05/15 02:46:56;;;;;;;;;;;;;;;17.51;48.78;100128.34;4369767;32;19983;-82
2022/05/15 02:52:10;;;;;;;;;;;;;;;17.26;49.66;100141.59;4370209;32;19987;-81
2022/05/15 02:54:37;;;;;;;;;;;;;;;17.18;49.83;100136.41;4370587;32;19978;-81
2022/05/15 02:57:05;;;;;;;;;;;;;;;16.94;50.60;100141.75;4359883;32;20015;-81
2022/05/15 02:59:32;;;;;;;;;;;;;;;17.13;49.73;100142.53;4368900;32;20021;-81
2022/05/15 03:02:00;;;;;;;;;;;;;;;17.10;49.93;100143.44;4381175;32;19993;-82
2022/05/15 03:04:27;;;;;;;;;;;;;;;17.17;49.42;100139.91;4370438;32;20026;-81
2022/05/15 03:06:54;;;;;;;;;;;;;;;17.03;50.25;100146.94;4380796;32;19987;-81
2022/05/15 03:09:22;;;;;;;;;;;;;;;17.05;50.33;100145.22;4370325;32;20359;-82
2022/05/15 03:11:49;;;;;;;;;;;;;;;17.15;49.95;100136.41;4370283;32;20000;-81
2022/05/15 03:14:16;;;;;;;;;;;;;;;17.10;49.97;100143.44;4369861;32;20026;-81
2022/05/15 03:16:43;;;;;;;;;;;;;;;16.97;49.97;100152.22;4368400;32;20078;-82
2022/05/15 03:19:10;;;;;;;;;;;;;;;17.12;50.01;100146.91;4369575;32;20020;-81
2022/05/15 03:21:37;;;;;;;;;;;;;;;16.93;50.36;100150.50;4369268;32;20002;-82
2022/05/15 03:24:06;;;;;;;;;;;;;;;16.97;50.25;100157.44;4370159;32;20304;-82
2022/05/15 03:26:35;;;;;;;;;;;;;;;16.90;50.63;100155.75;4368664;32;20374;-82
2022/05/15 03:29:02;;;;;;;;;;;;;;;16.83;50.97;100159.25;4369986;32;19975;-83
2022/05/15 03:31:29;;;;;;;;;;;;;;;16.78;50.92;100155.78;4380819;32;20019;-83
2022/05/15 03:33:56;;;;;;;;;;;;;;;16.96;50.41;100160.94;4370059;32;20340;-82
2022/05/15 03:36:23;;;;;;;;;;;;;;;16.99;50.49;100160.94;4370134;32;19976;-82
2022/05/15 03:38:52;;;;;;;;;;;;;;;16.79;50.97;100158.41;4369508;32;20316;-82
2022/05/15 03:41:19;;;;;;;;;;;;;;;16.80;51.11;100159.28;4369903;32;20015;-82
2022/05/15 03:43:46;;;;;;;;;;;;;;;16.83;51.38;100164.50;4369676;32;19992;-82
2022/05/15 03:46:13;;;;;;;;;;;;;;;16.89;50.97;100162.72;4369835;32;20026;-82
2022/05/15 03:48:40;;;;;;;;;;;;;;;16.73;51.30;100164.50;4368948;32;20006;-83
2022/05/15 03:51:07;;;;;;;;;;;;;;;16.98;50.82;100167.03;4369586;32;20024;-83
2022/05/15 03:53:34;;;;;;;;;;;;;;;16.85;51.23;100162.75;4368888;32;19983;-83
2022/05/15 03:56:02;;;;;;;;;;;;;;;16.57;52.25;100168.03;4369678;32;20002;-83
2022/05/15 03:58:30;;;;;;;;;;;;;;;16.53;52.41;100176.78;4369526;32;20444;-82
2022/05/15 04:00:57;;;;;;;;;;;;;;;16.61;52.23;100175.00;4369511;32;20380;-83
2022/05/15 04:03:24;;;;;;;;;;;;;;;16.82;51.78;100173.22;4369053;32;20033;-83
2022/05/15 04:05:51;;;;;;;;;;;;;;;16.91;51.75;100178.38;4369376;32;20034;-82
2022/05/15 04:08:18;;;;;;;;;;;;;;;17.01;51.54;100179.25;4370781;32;20009;-82
2022/05/15 04:10:46;;;;;;;;;;;;;;;17.01;51.81;100176.63;4371178;32;20044;-82
2022/05/15 04:13:13;;;;;;;;;;;;;;;16.99;52.16;100181.84;4369105;32;20047;-83
2022/05/15 04:15:39;;;;;;;;;;;;;;;16.84;52.53;100192.38;4370958;32;20019;-83
2022/05/15 04:18:09;;;;;;;;;;;;;;;17.00;52.08;100183.56;4370792;32;20025;-83
2022/05/15 04:20:35;;;;;;;;;;;;;;;17.00;52.22;100187.94;4371312;32;20022;-83
2022/05/15 04:23:03;;;;;;;;;;;;;;;17.22;51.80;100183.47;4372270;32;20307;-82
2022/05/15 04:25:30;;;;;;;;;;;;;;;17.16;52.32;100187.84;4378552;32;20347;-83
2022/05/15 04:27:57;;;;;;;;;;;;;;;17.11;52.57;100192.25;4386306;32;19993;-83
2022/05/15 04:30:25;;;;;;;;;;;;;;;17.15;52.18;100199.22;4386131;32;19998;-82
2022/05/15 04:32:52;;;;;;;;;;;;;;;17.22;51.84;100193.94;4387060;32;20020;-83
2022/05/15 04:35:22;;;;;;;;;;;;;;;17.34;50.87;100193.88;4386125;32;19982;-83
2022/05/15 04:37:51;;;;;;;;;;;;;;;17.34;50.30;100193.88;4384384;32;20002;-83
2022/05/15 04:40:19;;;;;;;;;;;;;;;17.46;51.04;100188.56;4386407;32;19986;-83
2022/05/15 04:42:46;;;;;;;;;;;;;;;17.58;49.73;100193.72;4384488;32;19990;-83
2022/05/15 04:45:13;;;;;;;;;;;;;;;17.65;50.30;100202.41;4386141;32;20026;-83
2022/05/15 04:47:42;;;;;;;;;;;;;;;17.76;50.07;100202.31;4385723;32;19993;-83
2022/05/15 04:50:09;;;;;;;;;;;;;;;17.87;50.43;100206.63;4385531;32;19992;-83
2022/05/15 04:52:36;;;;;;;;;;;;;;;17.95;49.35;100198.72;4385347;32;20081;-82
2022/05/15 04:55:03;;;;;;;;;;;;;;;18.03;49.61;100196.91;4395830;32;20418;-82
2022/05/15 04:57:30;;;;;;;;;;;;;;;18.10;49.78;100198.59;4083547;32;10000699;-82
2022/05/15 04:59:57;;;;;;;;;;;;;;;18.05;49.96;100205.59;4386323;32;20034;-82
2022/05/15 05:02:24;;;;;;;;;;;;;;;18.15;49.95;100206.37;4386388;32;19992;-81
2022/05/15 05:04:51;;;;;;;;;;;;;;;18.18;49.19;100205.50;4386243;32;20031;-83
2022/05/15 05:07:17;;;;;;;;;;;;;;;18.26;49.45;100203.69;4385158;32;19971;-82
2022/05/15 05:09:45;;;;;;;;;;;;;;;18.38;48.98;100203.56;4386209;32;20024;-82
2022/05/15 05:12:11;;;;;;;;;;;;;;;18.55;48.16;100214.75;4385825;32;20047;-81
2022/05/15 05:14:38;;;;;;;;;;;;;;;18.63;49.16;100213.78;4385749;32;20005;-81
2022/05/15 05:17:12;;;;;;;;;;;;;;;18.71;48.28;100207.56;4385291;32;20021;-81
2022/05/15 05:19:40;;;;;;;;;;;;;;;18.77;48.71;100209.31;4382731;32;19978;-82
2022/05/15 05:22:07;;;;;;;;;;;;;;;18.89;47.58;100210.88;4385122;32;20001;-82
2022/05/15 05:24:34;;;;;;;;;;;;;;;18.92;47.32;100209.13;4385913;32;20016;-81
2022/05/15 05:27:01;;;;;;;;;;;;;;;18.93;47.45;100212.63;4385157;32;20062;-82
2022/05/15 05:29:28;;;;;;;;;;;;;;;19.07;47.15;100212.44;4386740;32;20329;-82
2022/05/15 05:31:55;;;;;;;;;;;;;;;19.17;47.10;100211.41;4386256;32;20360;-82
2022/05/15 05:34:22;;;;;;;;;;;;;;;19.18;46.69;100214.03;4385640;32;19996;-82
2022/05/15 05:36:49;;;;;;;;;;;;;;;19.24;46.66;100223.56;4384944;32;19993;-82
2022/05/15 05:39:17;;;;;;;;;;;;;;;19.41;45.79;100221.59;4388500;32;20002;-82
2022/05/15 05:41:44;;;;;;;;;;;;;;;19.36;46.33;100227.78;4385727;32;20390;-82
2022/05/15 05:44:11;;;;;;;;;;;;;;;19.54;45.50;100221.44;4383942;32;19988;-82
2022/05/15 05:46:39;;;;;;;;;;;;;;;19.64;44.84;100218.66;4386323;32;20656;-81
2022/05/15 05:49:08;;;;;;;;;;;;;;;19.64;45.40;100218.66;4385024;32;20012;-82
2022/05/15 05:51:35;;;;;;;;;;;;;;;19.76;45.06;100217.63;4385031;32;19986;-82
2022/05/15 05:54:02;;;;;;;;;;;;;;;19.88;44.78;100222.69;4384551;32;20021;-82
2022/05/15 05:56:29;;;;;;;;;;;;;;;19.87;45.20;100218.31;4376297;32;20014;-81
2022/05/15 05:58:56;;;;;;;;;;;;;;;20.04;44.24;100220.69;4370902;32;19983;-80
2022/05/15 06:01:23;;;;;;;;;;;;;;;20.09;43.84;100220.59;4369279;32;20932;-83
2022/05/15 06:06:35;;;;;;;;;;;;;;;20.12;44.36;100217.91;4384949;32;19997;-84
2022/05/15 06:09:03;;;;;;;;;;;;;;;20.24;44.49;100225.59;4385505;32;19993;-82
2022/05/15 06:11:30;;;;;;;;;;;;;;;20.51;43.88;100218.09;4385423;32;20043;-83
2022/05/15 06:13:56;;;;;;;;;;;;;;;20.67;42.93;100227.47;4385873;32;19998;-81
2022/05/15 06:16:24;;;;;;;;;;;;;;;20.67;43.52;100225.69;4384148;32;20023;-82
2022/05/15 06:18:51;;;;;;;;;;;;;;;20.94;42.85;100222.56;4385146;32;20297;-84
2022/05/15 06:21:18;;;;;;;;;;;;;;;21.17;42.12;100224.72;4385500;32;19979;-82
2022/05/15 06:23:45;;;;;;;;;;;;;;;21.49;41.42;100226.69;4385345;32;19970;-82
2022/05/15 06:26:12;;;;;;;;;;;;;;;21.66;41.32;100219.25;4385805;32;20300;-82
2022/05/15 06:28:39;;;;;;;;;;;;;;;21.68;39.89;100217.44;4384949;32;20004;-84
2022/05/15 06:31:06;;;;;;;;;;;;;;;22.20;38.85;100226.75;4383770;32;20017;-81
2022/05/15 06:33:32;;;;;;;;;;;;;;;22.84;38.96;100223.28;4385010;32;20009;-82
2022/05/15 06:35:59;;;;;;;;;;;;;;;23.29;38.70;100220.25;4385639;32;20030;-82
2022/05/15 06:38:26;;;;;;;;;;;;;;;23.57;35.46;100215.84;4384111;32;20979;-82
2022/05/15 06:40:53;;;;;;;;;;;;;;;24.06;33.72;100219.59;4385275;32;19983;-82
2022/05/15 06:43:20;;;;;;;;;;;;;;;24.51;34.19;100208.38;4385368;32;20305;-83
2022/05/15 06:45:48;;;;;;;;;;;;;;;24.95;32.28;100216.50;4384823;32;19982;-82
2022/05/15 06:48:15;;;;;;;;;;;;;;;25.31;31.73;100213.37;4385346;32;20027;-83
2022/05/15 06:50:42;;;;;;;;;;;;;;;25.45;31.73;100211.03;4385766;32;20006;-83
2022/05/15 06:53:13;;;;;;;;;;;;;;;25.86;31.83;100215.66;4383771;32;20025;-84
2022/05/15 06:58:25;;;;;;;;;;;;;;;26.09;29.36;100212.03;4383316;32;20025;-82
2022/05/15 07:00:52;;;;;;;;;;;;;;;26.27;29.45;100211.28;4385222;32;20106;-82
2022/05/15 07:03:19;;;;;;;;;;;;;;;26.32;31.17;100209.25;4385714;32;20719;-83
2022/05/15 07:05:46;;;;;;;;;;;;;;;26.62;30.27;100211.56;4384730;32;20304;-83
2022/05/15 07:08:15;;;;;;;;;;;;;;;26.43;32.91;100212.31;4377574;32;20598;-85
2022/05/15 07:10:42;;;;;;;;;;;;;;;26.96;30.85;100210.03;4355972;32;19985;-83
2022/05/15 07:13:09;;;;;;;;;;;;;;;26.63;32.42;100214.13;4355465;32;20046;-83
2022/05/15 07:15:39;;;;;;;;;;;;;;;27.05;30.39;100212.25;4361822;32;19984;-85
2022/05/15 07:18:06;;;;;;;;;;;;;;;27.05;28.25;100215.78;4377955;32;19982;-83
2022/05/15 07:20:33;;;;;;;;;;;;;;;26.94;28.92;100217.22;4383438;32;19982;-82
2022/05/15 07:23:00;;;;;;;;;;;;;;;27.54;28.16;100217.97;4387277;32;20037;-85
2022/05/15 07:25:27;;;;;;;;;;;;;;;27.87;25.61;100214.63;4399404;32;20896;-84
2022/05/15 07:27:55;;;;;;;;;;;;;;;27.68;27.96;100214.63;4400285;32;19982;-83
2022/05/15 07:30:22;;;;;;;;;;;;;;;27.78;29.09;100215.94;4400686;32;19977;-83
2022/05/15 07:32:50;;;;;;;;;;;;;;;28.20;27.66;100212.91;4400828;32;20022;-85
2022/05/15 07:35:18;;;;;;;;;;;;;;;28.20;27.02;100212.91;4398774;32;19982;-87
2022/05/15 07:37:44;;;;;;;;;;;;;;;28.40;27.40;100203.97;4398367;32;19986;-86
2022/05/15 07:40:11;;;;;;;;;;;;;;;28.55;27.64;100207.59;4398571;32;19990;-82
2022/05/15 07:42:39;;;;;;;;;;;;;;;28.55;28.91;100212.06;4398672;32;19978;-79
2022/05/15 07:45:07;;;;;;;;;;;;;;;28.86;26.63;100214.84;4397508;32;20049;-80
2022/05/15 07:47:34;;;;;;;;;;;;;;;28.50;26.07;100209.66;4399961;32;20408;-79
2022/05/15 07:50:01;;;;;;;;;;;;;;;28.49;27.96;100202.59;4399651;32;20399;-82
2022/05/15 07:52:27;;;;;;;;;;;;;;;28.94;27.87;100209.06;4399299;32;19986;-80
2022/05/15 07:54:54;;;;;;;;;;;;;;;29.10;24.86;100199.38;4397838;32;19982;-79
2022/05/15 07:57:21;;;;;;;;;;;;;;;29.08;26.54;100206.56;4398900;32;20047;-80
2022/05/15 07:59:48;;;;;;;;;;;;;;;29.03;24.87;100203.28;4398572;32;20045;-80
2022/05/15 08:02:15;;;;;;;;;;;;;;;29.15;27.64;100207.94;4396335;32;19997;-80
2022/05/15 08:10:13;;;;;;;;;;;;;;;29.63;24.31;100198.16;4398571;32;20031;-80
2022/05/15 08:12:40;;;;;;;;;;;;;;;29.43;24.81;100203.75;4399876;32;20316;-79
2022/05/15 08:15:07;;;;;;;;;;;;;;;29.22;25.73;100200.47;4398378;32;20013;-80
2022/05/15 08:17:34;;;;;;;;;;;;;;;28.93;27.37;100208.22;4395805;32;20032;-78
2022/05/15 08:25:32;;;;;;;;;;;;;;;29.92;24.27;100198.28;4399448;32;19986;-79
2022/05/15 08:28:00;;;;;;;;;;;;;;;30.34;23.60;100200.28;4398771;32;19979;-79
2022/05/15 08:30:27;;;;;;;;;;;;;;;30.00;25.76;100201.38;4397797;32;20039;-78
2022/05/15 08:32:54;;;;;;;;;;;;;;;30.25;22.65;100199.94;4373164;32;19974;-78
2022/05/15 08:35:21;;;;;;;;;;;;;;;30.28;22.64;100205.09;4398126;32;20383;-79
2022/05/15 08:37:48;;;;;;;;;;;;;;;30.37;23.16;100212.56;4396628;32;19994;-80
2022/05/15 08:40:15;;;;;;;;;;;;;;;30.32;24.10;100212.00;4398886;32;20000;-81
2022/05/15 08:42:49;;;;;;;;;;;;;;;29.85;25.45;100202.28;4397945;32;20260;-81
2022/05/15 08:45:18;;;;;;;;;;;;;;;30.37;23.16;100204.53;4397388;32;19983;-85
2022/05/15 08:47:46;;;;;;;;;;;;;;;30.37;21.34;100201.88;4394636;32;19986;-84
2022/05/15 08:50:14;;;;;;;;;;;;;;;30.33;26.20;100208.34;4399137;32;19990;-84
2022/05/15 08:52:45;;;;;;;;;;;;;;;31.00;20.53;100206.06;4399033;32;19974;-83
2022/05/15 08:55:14;;;;;;;;;;;;;;;30.43;24.98;100206.84;4409304;32;20000;-81
2022/05/15 08:57:52;;;;;;;;;;;;;;;30.69;22.93;100207.06;4399800;32;20937;-83
2022/05/15 09:00:21;;;;;;;;;;;;;;;31.08;21.00;100202.87;4411154;32;19970;-84
2022/05/15 09:02:48;;;;;;;;;;;;;;;31.07;20.41;100198.50;4398354;32;20049;-81
2022/05/15 09:05:16;;;;;;;;;;;;;;;31.08;20.48;100205.56;4401040;32;19986;-83
2022/05/15 09:08:03;;;;;;;;;;;;;;;30.89;21.35;100206.75;4401103;32;19996;-85
2022/05/15 09:10:35;;;;;;;;;;;;;;;30.94;21.15;100204.62;4376885;32;20000;-84
2022/05/15 09:13:08;;;;;;;;;;;;;;;30.56;21.52;100199.78;4400452;32;19993;-83
2022/05/15 09:15:36;;;;;;;;;;;;;;;30.49;23.04;100198.47;4399941;32;20362;-82
2022/05/15 09:18:05;;;;;;;;;;;;;;;30.58;21.67;100199.72;4398670;32;20086;-83
2022/05/15 09:20:38;;;;;;;;;;;;;;;30.88;21.35;100204.13;4400662;32;19986;-80
2022/05/15 09:23:22;;;;;;;;;;;;;;;30.73;20.54;100200.59;4399260;32;20041;-86
2022/05/15 09:25:50;;;;;;;;;;;;;;;30.50;21.90;100199.31;4394453;32;19978;-85
2022/05/15 09:28:17;;;;;;;;;;;;;;;30.61;22.28;100198.69;4401175;32;19974;-82
2022/05/15 09:30:46;;;;;;;;;;;;;;;31.03;21.71;100193.34;4401066;32;20008;-83
2022/05/15 09:33:30;;;;;;;;;;;;;;;31.23;21.19;100199.22;4381902;32;19982;-83
2022/05/15 09:36:17;;;;;;;;;;;;;;;31.15;20.92;100202.41;4384566;32;20441;-82
2022/05/15 09:38:44;;;;;;;;;;;;;;;30.51;22.95;100191.22;4397826;32;20477;-80
2022/05/15 09:44:33;;;;;;;;;;;;;;;30.94;21.80;100191.25;4400978;32;19988;-81
2022/05/15 09:47:15;;;;;;;;;;;;;;;31.10;21.96;100192.94;4400316;32;20295;-85
2022/05/15 09:49:42;;;;;;;;;;;;;;;30.93;23.62;100192.22;4397997;32;19982;-86
2022/05/15 09:52:29;;;;;;;;;;;;;;;30.93;21.76;100194.03;4391578;32;20028;-81
2022/05/15 09:55:15;;;;;;;;;;;;;;;30.15;23.82;100188.06;4386544;32;19982;-81
2022/05/15 09:57:52;;;;;;;;;;;;;;;30.42;23.88;100186.44;4399317;32;19986;-82
2022/05/15 10:00:21;;;;;;;;;;;;;;;30.97;22.26;100193.72;4398351;32;20054;-82
2022/05/15 10:02:49;;;;;;;;;;;;;;;30.84;21.25;100187.44;4399204;32;20491;-82
2022/05/15 10:05:21;;;;;;;;;;;;;;;31.17;20.09;100194.28;4399258;32;19979;-83
2022/05/15 10:07:57;;;;;;;;;;;;;;;30.70;23.48;100190.09;4400162;32;20316;-83
2022/05/15 10:10:27;;;;;;;;;;;;;;;30.59;23.00;100188.91;4399972;32;20248;-84
2022/05/15 10:12:55;;;;;;;;;;;;;;;30.90;21.92;100187.06;4399964;32;19986;-81
2022/05/15 10:15:24;;;;;;;;;;;;;;;31.26;21.85;100186.50;4410362;32;20381;-83
2022/05/15 10:17:52;;;;;;;;;;;;;;;31.47;19.87;100178.97;4400327;32;20034;-83
2022/05/15 10:20:19;;;;;;;;;;;;;;;31.01;21.33;100184.53;4394457;32;20312;-82
2022/05/15 10:23:02;;;;;;;;;;;;;;;30.84;23.20;100176.75;4399787;32;19999;-82
2022/05/15 10:25:35;;;;;;;;;;;;;;;31.46;19.96;100169.22;4398020;32;19978;-83
2022/05/15 10:28:21;;;;;;;;;;;;;;;31.17;22.99;100178.22;4401089;32;19999;-84
2022/05/15 10:31:11;;;;;;;;;;;;;;;31.34;22.76;100179.87;4401101;32;19974;-82
2022/05/15 10:33:39;;;;;;;;;;;;;;;31.43;20.03;100176.56;4394751;32;19994;-84
2022/05/15 10:36:09;;;;;;;;;;;;;;;31.03;21.51;100171.94;4400036;32;19978;-83
2022/05/15 10:38:55;;;;;;;;;;;;;;;31.11;21.29;100173.25;4398840;32;19986;-83
2022/05/15 10:41:43;;;;;;;;;;;;;;;31.62;21.02;100168.19;4400647;32;19969;-77
2022/05/15 10:44:25;;;;;;;;;;;;;;;31.41;21.49;100176.69;4400858;32;20049;-82
2022/05/15 10:46:53;;;;;;;;;;;;;;;31.68;18.11;100173.13;4400961;32;19979;-80
2022/05/15 10:49:27;;;;;;;;;;;;;;;31.49;18.81;100160.09;4399843;32;20072;-79
2022/05/15 10:52:16;;;;;;;;;;;;;;;31.33;19.83;100152.22;4400851;32;20474;-77
2022/05/15 10:57:38;;;;;;;;;;;;;;;31.36;22.58;100159.19;4399032;32;20019;-78
2022/05/15 11:00:24;;;;;;;;;;;;;;;31.65;19.93;100157.28;4400657;32;19990;-76
2022/05/15 11:02:51;;;;;;;;;;;;;;;31.69;20.14;100158.81;4398269;32;20028;-78
2022/05/15 11:05:30;;;;;;;;;;;;;;;31.88;18.43;100153.97;4400039;32;20029;-76
2022/05/15 11:08:04;;;;;;;;;;;;;;;31.78;19.18;100152.84;4399850;32;19978;-76
2022/05/15 11:10:37;;;;;;;;;;;;;;;31.37;20.26;100147.56;4400548;32;19988;-78
2022/05/15 11:13:11;;;;;;;;;;;;;;;31.54;21.37;100154.47;4400808;32;20036;-78
2022/05/15 11:15:41;;;;;;;;;;;;;;;31.73;18.64;100149.59;4399012;32;20335;-77
2022/05/15 11:18:14;;;;;;;;;;;;;;;31.28;18.63;100149.84;4397879;32;19967;-80
2022/05/15 11:20:53;;;;;;;;;;;;;;;31.52;17.93;100151.03;4399060;32;19996;-77
2022/05/15 11:23:32;;;;;;;;;;;;;;;31.37;18.12;100143.06;4400790;32;19974;-77
2022/05/15 11:26:01;;;;;;;;;;;;;;;30.98;20.39;100136.63;4386233;32;20006;-80
2022/05/15 11:28:33;;;;;;;;;;;;;;;31.16;20.56;100133.72;4399068;32;19989;-81
2022/05/15 11:31:02;;;;;;;;;;;;;;;31.31;20.08;100124.72;4398284;32;20041;-78
2022/05/15 11:33:32;;;;;;;;;;;;;;;31.39;20.25;100125.06;4399149;32;20032;-81
2022/05/15 11:36:26;;;;;;;;;;;;;;;31.23;21.61;100124.34;4399058;32;20430;-81
2022/05/15 11:39:02;;;;;;;;;;;;;;;31.25;20.45;100119.75;4395994;32;20028;-82
2022/05/15 11:41:29;;;;;;;;;;;;;;;31.27;19.87;100115.13;4383450;32;20003;-77
2022/05/15 11:43:59;;;;;;;;;;;;;;;31.11;20.02;100119.78;4390977;32;20002;-81
2022/05/15 11:46:55;;;;;;;;;;;;;;;30.74;20.81;100122.97;4396201;32;19989;-80
2022/05/15 11:49:22;;;;;;;;;;;;;;;31.01;20.85;100120.38;4398618;32;19985;-82
2022/05/15 11:52:16;;;;;;;;;;;;;;;30.75;21.67;100123.81;4395618;32;20394;-82
2022/05/15 11:54:45;;;;;;;;;;;;;;;30.79;21.53;100114.69;4405104;32;19982;-81
2022/05/15 11:57:15;;;;;;;;;;;;;;;30.78;22.85;100121.00;4391214;32;19994;-81
2022/05/15 11:59:47;;;;;;;;;;;;;;;30.71;24.81;100111.63;4397329;32;20024;-82
2022/05/15 12:02:20;;;;;;;;;;;;;;;30.95;21.93;100115.44;4396407;32;19994;-80
2022/05/15 12:04:47;;;;;;;;;;;;;;;31.15;20.02;100110.63;4397808;32;19991;-78
2022/05/15 12:07:15;;;;;;;;;;;;;;;31.00;21.04;100107.97;3793549;32;10001114;-80
2022/05/15 12:09:44;;;;;;;;;;;;;;;30.89;23.31;100110.50;4393255;32;20009;-81
2022/05/15 12:12:27;;;;;;;;;;;;;;;30.95;22.00;100102.06;4398784;32;19983;-78
2022/05/15 12:15:06;;;;;;;;;;;;;;;30.90;21.13;100101.50;4390027;32;20336;-81
2022/05/15 12:17:35;;;;;;;;;;;;;;;31.02;22.35;100095.38;4396937;32;20000;-79
2022/05/15 12:20:09;;;;;;;;;;;;;;;31.19;20.50;100094.25;4408276;32;19993;-80
2022/05/15 12:22:37;;;;;;;;;;;;;;;31.39;20.53;100097.47;4382024;32;20034;-83
2022/05/15 12:25:08;;;;;;;;;;;;;;;30.84;22.10;100099.22;4366913;32;19982;-81
2022/05/15 12:27:35;;;;;;;;;;;;;;;31.11;21.12;100087.69;4356739;32;19986;-78
2022/05/15 12:30:08;;;;;;;;;;;;;;;31.06;20.80;100084.47;4339988;32;904320;-78
2022/05/15 12:32:44;;;;;;;;;;;;;;;31.09;22.00;100084.28;4369352;32;20001;-80
2022/05/15 12:35:16;;;;;;;;;;;;;;;31.11;22.29;100082.34;4380101;32;19987;-78
2022/05/15 12:37:48;;;;;;;;;;;;;;;31.13;20.90;100075.09;4367944;32;19990;-78
2022/05/15 12:40:15;;;;;;;;;;;;;;;30.65;24.25;100079.94;4365029;32;20357;-80
2022/05/15 12:42:42;;;;;;;;;;;;;;;30.50;24.14;100077.25;4368451;32;20344;-81
2022/05/15 12:45:16;;;;;;;;;;;;;;;31.21;20.66;100072.78;4369582;32;19998;-79
2022/05/15 12:47:43;;;;;;;;;;;;;;;31.06;20.84;100076.44;4369475;32;20030;-79
2022/05/15 12:50:21;;;;;;;;;;;;;;;30.92;23.13;100078.22;4368715;32;20129;-79
2022/05/15 12:52:52;;;;;;;;;;;;;;;31.17;22.87;100072.09;4367418;32;19975;-80
2022/05/15 12:55:29;;;;;;;;;;;;;;;31.40;20.12;100062.59;4367280;32;20454;-79
2022/05/15 12:58:05;;;;;;;;;;;;;;;31.00;21.04;100065.19;4367485;32;20703;-82
2022/05/15 13:00:42;;;;;;;;;;;;;;;31.13;20.51;100065.25;4368010;32;19979;-79
2022/05/15 13:03:11;;;;;;;;;;;;;;;30.73;22.85;100072.31;4368350;32;20005;-79
2022/05/15 13:05:50;;;;;;;;;;;;;;;30.99;22.52;100060.81;4367364;32;20075;-77
2022/05/15 13:08:19;;;;;;;;;;;;;;;29.68;23.75;100060.97;4366876;32;20034;-83
2022/05/15 13:10:52;;;;;;;;;;;;;;;30.07;22.22;100052.34;4368328;32;19986;-79
2022/05/15 13:13:35;;;;;;;;;;;;;;;30.69;22.36;100044.03;4369789;32;20312;-81